sensor_id;sensor_type;location;lat;lon;timestamp;temperature;humidity
70079;DHT22;57451;52.496;13.456;2023-05-20T00:02:24;13.40;56.90
70079;DHT22;57451;52.496;13.456;2023-05-20T00:04:52;13.40;56.40
70079;DHT22;57451;52.496;13.456;2023-05-20T00:07:19;13.40;57.00
70079;DHT22;57451;52.496;13.456;2023-05-20T00:09:47;13.40;57.20
70079;DHT22;57451;52.496;13.456;2023-05-20T00:12:15;13.30;57.60
70079;DHT22;57451;52.496;13.456;2023-05-20T00:14:42;13.30;57.60
70079;DHT22;57451;52.496;13.456;2023-05-20T00:17:11;13.30;57.70
70079;DHT22;57451;52.496;13.456;2023-05-20T00:19:39;13.20;57.40
70079;DHT22;57451;52.496;13.456;2023-05-20T00:22:07;13.20;57.10
70079;DHT22;57451;52.496;13.456;2023-05-20T00:24:38;13.20;57.70
70079;DHT22;57451;52.496;13.456;2023-05-20T00:27:06;13.20;58.30
70079;DHT22;57451;52.496;13.456;2023-05-20T00:29:33;13.10;58.50
70079;DHT22;57451;52.496;13.456;2023-05-20T00:32:01;13.10;57.80
70079;DHT22;57451;52.496;13.456;2023-05-20T00:34:30;13.10;58.20
70079;DHT22;57451;52.496;13.456;2023-05-20T00:36:57;13.10;59.20
70079;DHT22;57451;52.496;13.456;2023-05-20T00:39:26;13.00;59.20
70079;DHT22;57451;52.496;13.456;2023-05-20T00:41:53;12.90;59.50
70079;DHT22;57451;52.496;13.456;2023-05-20T00:44:21;12.90;59.40
70079;DHT22;57451;52.496;13.456;2023-05-20T00:46:51;12.90;59.20
70079;DHT22;57451;52.496;13.456;2023-05-20T00:49:18;12.90;59.60
70079;DHT22;57451;52.496;13.456;2023-05-20T00:51:49;12.80;59.50
70079;DHT22;57451;52.496;13.456;2023-05-20T00:54:16;12.80;58.90
70079;DHT22;57451;52.496;13.456;2023-05-20T00:56:44;12.80;59.60
70079;DHT22;57451;52.496;13.456;2023-05-20T00:59:13;12.70;60.20
70079;DHT22;57451;52.496;13.456;2023-05-20T01:01:40;12.70;60.40
70079;DHT22;57451;52.496;13.456;2023-05-20T01:04:08;12.70;60.70
70079;DHT22;57451;52.496;13.456;2023-05-20T01:06:36;12.60;60.90
70079;DHT22;57451;52.496;13.456;2023-05-20T01:09:05;12.60;60.50
70079;DHT22;57451;52.496;13.456;2023-05-20T01:11:35;12.60;61.20
70079;DHT22;57451;52.496;13.456;2023-05-20T01:14:07;12.60;60.90
70079;DHT22;57451;52.496;13.456;2023-05-20T01:16:35;12.60;60.90
70079;DHT22;57451;52.496;13.456;2023-05-20T01:19:12;12.60;60.90
70079;DHT22;57451;52.496;13.456;2023-05-20T01:21:47;12.50;60.80
70079;DHT22;57451;52.496;13.456;2023-05-20T01:24:17;12.50;61.60
70079;DHT22;57451;52.496;13.456;2023-05-20T01:26:47;12.50;61.70
70079;DHT22;57451;52.496;13.456;2023-05-20T01:29:16;12.40;62.30
70079;DHT22;57451;52.496;13.456;2023-05-20T01:31:46;12.40;62.30
70079;DHT22;57451;52.496;13.456;2023-05-20T01:34:14;12.40;62.70
70079;DHT22;57451;52.496;13.456;2023-05-20T01:36:44;12.30;62.20
70079;DHT22;57451;52.496;13.456;2023-05-20T01:39:12;12.30;62.60
70079;DHT22;57451;52.496;13.456;2023-05-20T01:41:42;12.30;62.30
70079;DHT22;57451;52.496;13.456;2023-05-20T01:44:10;12.30;62.20
70079;DHT22;57451;52.496;13.456;2023-05-20T01:46:39;12.30;62.20
70079;DHT22;57451;52.496;13.456;2023-05-20T01:49:06;12.30;62.10
70079;DHT22;57451;52.496;13.456;2023-05-20T01:51:34;12.30;62.20
70079;DHT22;57451;52.496;13.456;2023-05-20T01:54:02;12.30;62.40
70079;DHT22;57451;52.496;13.456;2023-05-20T01:56:30;12.30;63.00
70079;DHT22;57451;52.496;13.456;2023-05-20T01:59:00;12.20;62.50
70079;DHT22;57451;52.496;13.456;2023-05-20T02:01:27;12.20;63.00
70079;DHT22;57451;52.496;13.456;2023-05-20T02:03:55;12.20;62.00
70079;DHT22;57451;52.496;13.456;2023-05-20T02:06:25;12.20;62.90
70079;DHT22;57451;52.496;13.456;2023-05-20T02:08:55;12.20;62.40
70079;DHT22;57451;52.496;13.456;2023-05-20T02:11:22;12.10;62.70
70079;DHT22;57451;52.496;13.456;2023-05-20T02:13:50;12.10;63.30
70079;DHT22;57451;52.496;13.456;2023-05-20T02:16:19;12.10;64.10
70079;DHT22;57451;52.496;13.456;2023-05-20T02:18:47;12.10;64.10
70079;DHT22;57451;52.496;13.456;2023-05-20T02:21:16;12.00;63.80
70079;DHT22;57451;52.496;13.456;2023-05-20T02:23:44;12.10;63.30
70079;DHT22;57451;52.496;13.456;2023-05-20T02:26:11;12.10;63.50
70079;DHT22;57451;52.496;13.456;2023-05-20T02:28:39;12.00;63.60
70079;DHT22;57451;52.496;13.456;2023-05-20T02:31:13;12.10;63.20
70079;DHT22;57451;52.496;13.456;2023-05-20T02:33:42;12.00;63.90
70079;DHT22;57451;52.496;13.456;2023-05-20T02:36:09;12.00;63.80
70079;DHT22;57451;52.496;13.456;2023-05-20T02:38:37;12.00;63.10
70079;DHT22;57451;52.496;13.456;2023-05-20T02:41:04;12.00;63.80
70079;DHT22;57451;52.496;13.456;2023-05-20T02:43:32;12.00;63.90
70079;DHT22;57451;52.496;13.456;2023-05-20T02:46:01;12.00;63.40
70079;DHT22;57451;52.496;13.456;2023-05-20T02:48:28;12.00;63.50
70079;DHT22;57451;52.496;13.456;2023-05-20T02:50:58;12.10;63.50
70079;DHT22;57451;52.496;13.456;2023-05-20T02:53:25;12.10;63.90
70079;DHT22;57451;52.496;13.456;2023-05-20T02:55:53;12.10;63.40
70079;DHT22;57451;52.496;13.456;2023-05-20T02:58:20;12.10;64.30
70079;DHT22;57451;52.496;13.456;2023-05-20T03:00:52;12.10;63.80
70079;DHT22;57451;52.496;13.456;2023-05-20T03:03:20;12.20;63.80
70079;DHT22;57451;52.496;13.456;2023-05-20T03:05:47;12.20;63.20
70079;DHT22;57451;52.496;13.456;2023-05-20T03:08:20;12.20;63.20
70079;DHT22;57451;52.496;13.456;2023-05-20T03:10:48;12.20;63.40
70079;DHT22;57451;52.496;13.456;2023-05-20T03:13:15;12.20;62.70
70079;DHT22;57451;52.496;13.456;2023-05-20T03:15:43;12.20;63.10
70079;DHT22;57451;52.496;13.456;2023-05-20T03:18:12;12.30;63.50
70079;DHT22;57451;52.496;13.456;2023-05-20T03:20:40;12.20;63.40
70079;DHT22;57451;52.496;13.456;2023-05-20T03:23:11;12.30;63.30
70079;DHT22;57451;52.496;13.456;2023-05-20T03:25:40;12.30;63.70
70079;DHT22;57451;52.496;13.456;2023-05-20T03:28:07;12.30;63.60
70079;DHT22;57451;52.496;13.456;2023-05-20T03:30:37;12.30;63.50
70079;DHT22;57451;52.496;13.456;2023-05-20T03:33:05;12.30;63.60
70079;DHT22;57451;52.496;13.456;2023-05-20T03:35:33;12.30;63.40
70079;DHT22;57451;52.496;13.456;2023-05-20T03:38:02;12.30;63.20
70079;DHT22;57451;52.496;13.456;2023-05-20T03:40:30;12.30;63.00
70079;DHT22;57451;52.496;13.456;2023-05-20T03:42:59;12.40;63.10
70079;DHT22;57451;52.496;13.456;2023-05-20T03:45:28;12.40;63.10
70079;DHT22;57451;52.496;13.456;2023-05-20T03:48:04;12.40;63.80
70079;DHT22;57451;52.496;13.456;2023-05-20T03:50:33;12.30;64.10
70079;DHT22;57451;52.496;13.456;2023-05-20T03:53:01;12.30;63.50
70079;DHT22;57451;52.496;13.456;2023-05-20T03:55:35;12.40;63.10
70079;DHT22;57451;52.496;13.456;2023-05-20T03:58:04;12.40;63.40
70079;DHT22;57451;52.496;13.456;2023-05-20T04:00:32;12.40;63.60
70079;DHT22;57451;52.496;13.456;2023-05-20T04:03:00;12.40;63.60
70079;DHT22;57451;52.496;13.456;2023-05-20T04:05:28;12.40;63.70
70079;DHT22;57451;52.496;13.456;2023-05-20T04:07:57;12.30;63.80
70079;DHT22;57451;52.496;13.456;2023-05-20T04:10:26;12.30;64.00
70079;DHT22;57451;52.496;13.456;2023-05-20T04:12:53;12.30;63.50
70079;DHT22;57451;52.496;13.456;2023-05-20T04:15:23;12.40;63.80
70079;DHT22;57451;52.496;13.456;2023-05-20T04:17:54;12.40;64.20
70079;DHT22;57451;52.496;13.456;2023-05-20T04:20:22;12.30;64.00
70079;DHT22;57451;52.496;13.456;2023-05-20T04:22:53;12.40;63.70
70079;DHT22;57451;52.496;13.456;2023-05-20T04:25:21;12.40;63.50
70079;DHT22;57451;52.496;13.456;2023-05-20T04:27:50;12.40;64.30
70079;DHT22;57451;52.496;13.456;2023-05-20T04:30:20;12.40;64.70
70079;DHT22;57451;52.496;13.456;2023-05-20T04:32:50;12.30;64.40
70079;DHT22;57451;52.496;13.456;2023-05-20T04:35:19;12.40;64.20
70079;DHT22;57451;52.496;13.456;2023-05-20T04:37:48;12.40;64.60
70079;DHT22;57451;52.496;13.456;2023-05-20T04:40:18;12.40;64.40
70079;DHT22;57451;52.496;13.456;2023-05-20T04:42:47;12.40;64.70
70079;DHT22;57451;52.496;13.456;2023-05-20T04:45:15;12.40;64.50
70079;DHT22;57451;52.496;13.456;2023-05-20T04:47:44;12.40;65.00
70079;DHT22;57451;52.496;13.456;2023-05-20T04:50:14;12.40;64.60
70079;DHT22;57451;52.496;13.456;2023-05-20T04:52:42;12.40;64.90
70079;DHT22;57451;52.496;13.456;2023-05-20T04:55:12;12.40;64.60
70079;DHT22;57451;52.496;13.456;2023-05-20T04:57:42;12.50;64.30
70079;DHT22;57451;52.496;13.456;2023-05-20T05:00:11;12.50;64.20
70079;DHT22;57451;52.496;13.456;2023-05-20T05:02:40;12.50;64.30
70079;DHT22;57451;52.496;13.456;2023-05-20T05:05:07;12.50;65.00
70079;DHT22;57451;52.496;13.456;2023-05-20T05:07:52;12.50;64.60
70079;DHT22;57451;52.496;13.456;2023-05-20T05:10:19;12.60;64.60
70079;DHT22;57451;52.496;13.456;2023-05-20T05:12:48;12.50;64.90
70079;DHT22;57451;52.496;13.456;2023-05-20T05:15:16;12.50;64.80
70079;DHT22;57451;52.496;13.456;2023-05-20T05:17:49;12.50;65.30
70079;DHT22;57451;52.496;13.456;2023-05-20T05:20:20;12.50;65.10
70079;DHT22;57451;52.496;13.456;2023-05-20T05:22:49;12.60;64.60
70079;DHT22;57451;52.496;13.456;2023-05-20T05:25:18;12.50;65.30
70079;DHT22;57451;52.496;13.456;2023-05-20T05:27:46;12.60;65.50
70079;DHT22;57451;52.496;13.456;2023-05-20T05:30:34;12.60;65.70
70079;DHT22;57451;52.496;13.456;2023-05-20T05:33:13;12.60;65.50
70079;DHT22;57451;52.496;13.456;2023-05-20T05:35:44;12.60;65.30
70079;DHT22;57451;52.496;13.456;2023-05-20T05:38:13;12.60;65.60
70079;DHT22;57451;52.496;13.456;2023-05-20T05:40:41;12.60;64.90
70079;DHT22;57451;52.496;13.456;2023-05-20T05:43:08;12.70;65.70
70079;DHT22;57451;52.496;13.456;2023-05-20T05:45:36;12.70;65.90
70079;DHT22;57451;52.496;13.456;2023-05-20T05:48:04;12.70;66.10
70079;DHT22;57451;52.496;13.456;2023-05-20T05:50:32;12.70;65.90
70079;DHT22;57451;52.496;13.456;2023-05-20T05:53:00;12.70;66.40
70079;DHT22;57451;52.496;13.456;2023-05-20T05:55:29;12.80;66.20
70079;DHT22;57451;52.496;13.456;2023-05-20T05:57:57;12.70;66.10
70079;DHT22;57451;52.496;13.456;2023-05-20T06:00:24;12.70;66.80
70079;DHT22;57451;52.496;13.456;2023-05-20T06:02:53;12.70;66.70
70079;DHT22;57451;52.496;13.456;2023-05-20T06:05:34;12.80;66.80
70079;DHT22;57451;52.496;13.456;2023-05-20T06:08:02;12.80;66.30
70079;DHT22;57451;52.496;13.456;2023-05-20T06:10:34;12.90;66.30
70079;DHT22;57451;52.496;13.456;2023-05-20T06:13:05;12.90;66.30
70079;DHT22;57451;52.496;13.456;2023-05-20T06:15:33;13.00;66.50
70079;DHT22;57451;52.496;13.456;2023-05-20T06:18:02;12.90;66.70
70079;DHT22;57451;52.496;13.456;2023-05-20T06:20:31;13.00;66.50
70079;DHT22;57451;52.496;13.456;2023-05-20T06:22:58;13.00;66.30
70079;DHT22;57451;52.496;13.456;2023-05-20T06:25:35;13.00;66.50
70079;DHT22;57451;52.496;13.456;2023-05-20T06:28:03;13.00;66.30
70079;DHT22;57451;52.496;13.456;2023-05-20T06:30:31;13.10;66.70
70079;DHT22;57451;52.496;13.456;2023-05-20T06:32:59;13.10;66.50
70079;DHT22;57451;52.496;13.456;2023-05-20T06:35:27;13.10;66.60
70079;DHT22;57451;52.496;13.456;2023-05-20T06:37:55;13.20;66.40
70079;DHT22;57451;52.496;13.456;2023-05-20T06:40:23;13.20;66.30
70079;DHT22;57451;52.496;13.456;2023-05-20T06:42:52;13.20;66.60
70079;DHT22;57451;52.496;13.456;2023-05-20T06:45:39;13.20;65.80
70079;DHT22;57451;52.496;13.456;2023-05-20T06:48:22;13.20;66.00
70079;DHT22;57451;52.496;13.456;2023-05-20T06:50:49;13.30;66.30
70079;DHT22;57451;52.496;13.456;2023-05-20T06:53:17;13.30;65.90
70079;DHT22;57451;52.496;13.456;2023-05-20T06:55:46;13.40;65.90
70079;DHT22;57451;52.496;13.456;2023-05-20T06:58:15;13.40;65.80
70079;DHT22;57451;52.496;13.456;2023-05-20T07:00:43;13.50;65.40
70079;DHT22;57451;52.496;13.456;2023-05-20T07:03:11;13.50;65.90
70079;DHT22;57451;52.496;13.456;2023-05-20T07:05:39;13.60;65.60
70079;DHT22;57451;52.496;13.456;2023-05-20T07:08:08;13.60;65.40
70079;DHT22;57451;52.496;13.456;2023-05-20T07:10:36;13.60;65.10
70079;DHT22;57451;52.496;13.456;2023-05-20T07:13:04;13.70;65.30
70079;DHT22;57451;52.496;13.456;2023-05-20T07:15:33;13.80;65.10
70079;DHT22;57451;52.496;13.456;2023-05-20T07:18:00;13.90;64.70
70079;DHT22;57451;52.496;13.456;2023-05-20T07:20:28;13.80;64.50
70079;DHT22;57451;52.496;13.456;2023-05-20T07:22:59;13.90;64.20
70079;DHT22;57451;52.496;13.456;2023-05-20T07:25:39;14.00;64.30
70079;DHT22;57451;52.496;13.456;2023-05-20T07:28:07;14.00;64.20
70079;DHT22;57451;52.496;13.456;2023-05-20T07:30:36;14.00;64.40
70079;DHT22;57451;52.496;13.456;2023-05-20T07:33:18;14.10;64.00
70079;DHT22;57451;52.496;13.456;2023-05-20T07:35:49;14.10;64.00
70079;DHT22;57451;52.496;13.456;2023-05-20T07:38:17;14.20;63.60
70079;DHT22;57451;52.496;13.456;2023-05-20T07:40:50;14.20;64.00
70079;DHT22;57451;52.496;13.456;2023-05-20T07:43:18;14.20;63.80
70079;DHT22;57451;52.496;13.456;2023-05-20T07:45:47;14.20;63.60
70079;DHT22;57451;52.496;13.456;2023-05-20T07:48:15;14.30;63.70
70079;DHT22;57451;52.496;13.456;2023-05-20T07:50:43;14.30;63.20
70079;DHT22;57451;52.496;13.456;2023-05-20T07:53:11;14.40;63.80
70079;DHT22;57451;52.496;13.456;2023-05-20T07:55:39;14.40;63.30
70079;DHT22;57451;52.496;13.456;2023-05-20T07:58:06;14.40;63.60
70079;DHT22;57451;52.496;13.456;2023-05-20T08:00:35;14.40;63.40
70079;DHT22;57451;52.496;13.456;2023-05-20T08:03:08;14.50;63.90
70079;DHT22;57451;52.496;13.456;2023-05-20T08:05:48;14.50;63.40
70079;DHT22;57451;52.496;13.456;2023-05-20T08:08:21;14.50;63.80
70079;DHT22;57451;52.496;13.456;2023-05-20T08:10:56;14.60;63.60
70079;DHT22;57451;52.496;13.456;2023-05-20T08:13:27;14.70;63.20
70079;DHT22;57451;52.496;13.456;2023-05-20T08:15:54;14.80;62.90
70079;DHT22;57451;52.496;13.456;2023-05-20T08:18:26;14.80;62.90
70079;DHT22;57451;52.496;13.456;2023-05-20T08:20:53;14.90;62.50
70079;DHT22;57451;52.496;13.456;2023-05-20T08:23:21;15.00;62.90
70079;DHT22;57451;52.496;13.456;2023-05-20T08:25:49;15.00;62.50
70079;DHT22;57451;52.496;13.456;2023-05-20T08:28:19;15.10;62.00
70079;DHT22;57451;52.496;13.456;2023-05-20T08:30:48;15.20;61.80
70079;DHT22;57451;52.496;13.456;2023-05-20T08:33:15;15.30;61.80
70079;DHT22;57451;52.496;13.456;2023-05-20T08:35:46;15.40;61.90
70079;DHT22;57451;52.496;13.456;2023-05-20T08:38:15;15.50;61.60
70079;DHT22;57451;52.496;13.456;2023-05-20T08:40:42;15.60;61.20
70079;DHT22;57451;52.496;13.456;2023-05-20T08:43:10;15.60;60.80
70079;DHT22;57451;52.496;13.456;2023-05-20T08:45:38;15.70;60.80
70079;DHT22;57451;52.496;13.456;2023-05-20T08:48:11;15.80;60.80
70079;DHT22;57451;52.496;13.456;2023-05-20T08:50:39;15.80;60.70
70079;DHT22;57451;52.496;13.456;2023-05-20T08:53:07;15.80;60.10
70079;DHT22;57451;52.496;13.456;2023-05-20T08:55:39;15.80;60.10
70079;DHT22;57451;52.496;13.456;2023-05-20T08:58:09;15.90;60.00
70079;DHT22;57451;52.496;13.456;2023-05-20T09:00:37;15.90;60.00
70079;DHT22;57451;52.496;13.456;2023-05-20T09:03:05;15.90;60.20
70079;DHT22;57451;52.496;13.456;2023-05-20T09:05:33;16.00;60.20
70079;DHT22;57451;52.496;13.456;2023-05-20T09:08:06;16.00;60.10
70079;DHT22;57451;52.496;13.456;2023-05-20T09:10:35;16.00;59.90
70079;DHT22;57451;52.496;13.456;2023-05-20T09:13:04;16.10;59.80
70079;DHT22;57451;52.496;13.456;2023-05-20T09:15:33;16.10;60.30
70079;DHT22;57451;52.496;13.456;2023-05-20T09:18:02;16.00;60.20
70079;DHT22;57451;52.496;13.456;2023-05-20T09:20:31;16.00;60.00
70079;DHT22;57451;52.496;13.456;2023-05-20T09:22:59;16.10;60.10
70079;DHT22;57451;52.496;13.456;2023-05-20T09:25:27;16.10;60.10
70079;DHT22;57451;52.496;13.456;2023-05-20T09:27:56;16.10;59.90
70079;DHT22;57451;52.496;13.456;2023-05-20T09:30:24;16.20;59.70
70079;DHT22;57451;52.496;13.456;2023-05-20T09:32:53;16.20;59.40
70079;DHT22;57451;52.496;13.456;2023-05-20T09:35:21;16.20;59.60
70079;DHT22;57451;52.496;13.456;2023-05-20T09:37:52;16.20;59.90
70079;DHT22;57451;52.496;13.456;2023-05-20T09:40:23;16.20;59.50
70079;DHT22;57451;52.496;13.456;2023-05-20T09:42:53;16.30;59.30
70079;DHT22;57451;52.496;13.456;2023-05-20T09:45:22;16.30;59.10
70079;DHT22;57451;52.496;13.456;2023-05-20T09:47:51;16.30;59.20
70079;DHT22;57451;52.496;13.456;2023-05-20T09:50:21;16.30;58.90
70079;DHT22;57451;52.496;13.456;2023-05-20T09:52:50;16.40;59.00
70079;DHT22;57451;52.496;13.456;2023-05-20T09:55:21;16.50;58.80
70079;DHT22;57451;52.496;13.456;2023-05-20T09:57:49;16.50;58.80
70079;DHT22;57451;52.496;13.456;2023-05-20T10:00:18;16.50;59.10
70079;DHT22;57451;52.496;13.456;2023-05-20T10:02:49;16.50;58.90
70079;DHT22;57451;52.496;13.456;2023-05-20T10:05:19;16.50;59.00
70079;DHT22;57451;52.496;13.456;2023-05-20T10:08:21;16.50;58.90
70079;DHT22;57451;52.496;13.456;2023-05-20T10:10:58;16.50;58.90
70079;DHT22;57451;52.496;13.456;2023-05-20T10:13:39;16.60;58.90
70079;DHT22;57451;52.496;13.456;2023-05-20T10:16:16;16.50;58.80
70079;DHT22;57451;52.496;13.456;2023-05-20T10:18:53;16.60;58.70
70079;DHT22;57451;52.496;13.456;2023-05-20T10:21:23;16.60;59.40
70079;DHT22;57451;52.496;13.456;2023-05-20T10:23:51;16.60;59.20
70079;DHT22;57451;52.496;13.456;2023-05-20T10:26:19;16.60;59.00
70079;DHT22;57451;52.496;13.456;2023-05-20T10:28:48;16.60;58.80
70079;DHT22;57451;52.496;13.456;2023-05-20T10:31:19;16.70;58.70
70079;DHT22;57451;52.496;13.456;2023-05-20T10:33:51;16.70;58.40
70079;DHT22;57451;52.496;13.456;2023-05-20T10:36:22;16.80;58.40
70079;DHT22;57451;52.496;13.456;2023-05-20T10:38:53;16.80;59.00
70079;DHT22;57451;52.496;13.456;2023-05-20T10:41:23;16.80;58.60
70079;DHT22;57451;52.496;13.456;2023-05-20T10:44:01;16.90;58.10
70079;DHT22;57451;52.496;13.456;2023-05-20T10:46:29;17.00;58.10
70079;DHT22;57451;52.496;13.456;2023-05-20T10:49:18;17.10;57.70
70079;DHT22;57451;52.496;13.456;2023-05-20T10:51:51;17.20;57.00
70079;DHT22;57451;52.496;13.456;2023-05-20T10:54:19;17.30;57.00
70079;DHT22;57451;52.496;13.456;2023-05-20T10:56:50;17.40;56.50
70079;DHT22;57451;52.496;13.456;2023-05-20T10:59:18;17.40;57.00
70079;DHT22;57451;52.496;13.456;2023-05-20T11:01:48;17.40;56.90
70079;DHT22;57451;52.496;13.456;2023-05-20T11:04:21;17.50;57.00
70079;DHT22;57451;52.496;13.456;2023-05-20T11:07:05;17.60;57.00
70079;DHT22;57451;52.496;13.456;2023-05-20T11:09:33;17.70;56.70
70079;DHT22;57451;52.496;13.456;2023-05-20T11:12:01;17.70;56.60
70079;DHT22;57451;52.496;13.456;2023-05-20T11:14:29;17.70;56.60
70079;DHT22;57451;52.496;13.456;2023-05-20T11:17:03;17.90;56.60
70079;DHT22;57451;52.496;13.456;2023-05-20T11:19:56;18.00;55.90
70079;DHT22;57451;52.496;13.456;2023-05-20T11:22:27;18.00;55.80
70079;DHT22;57451;52.496;13.456;2023-05-20T11:24:54;18.10;55.90
70079;DHT22;57451;52.496;13.456;2023-05-20T11:27:22;18.10;55.90
70079;DHT22;57451;52.496;13.456;2023-05-20T11:29:49;18.20;55.90
70079;DHT22;57451;52.496;13.456;2023-05-20T11:32:19;18.30;56.10
70079;DHT22;57451;52.496;13.456;2023-05-20T11:34:50;18.40;55.80
70079;DHT22;57451;52.496;13.456;2023-05-20T11:37:19;18.50;55.90
70079;DHT22;57451;52.496;13.456;2023-05-20T11:39:48;18.60;54.80
70079;DHT22;57451;52.496;13.456;2023-05-20T11:42:15;18.60;55.10
70079;DHT22;57451;52.496;13.456;2023-05-20T11:44:43;18.70;54.50
70079;DHT22;57451;52.496;13.456;2023-05-20T11:47:11;18.80;54.00
70079;DHT22;57451;52.496;13.456;2023-05-20T11:49:39;19.00;54.20
70079;DHT22;57451;52.496;13.456;2023-05-20T11:52:09;19.00;53.60
70079;DHT22;57451;52.496;13.456;2023-05-20T11:54:38;19.10;54.00
70079;DHT22;57451;52.496;13.456;2023-05-20T11:57:06;19.20;53.70
70079;DHT22;57451;52.496;13.456;2023-05-20T11:59:33;19.30;53.50
70079;DHT22;57451;52.496;13.456;2023-05-20T12:02:01;19.30;53.60
70079;DHT22;57451;52.496;13.456;2023-05-20T12:04:29;19.40;53.70
70079;DHT22;57451;52.496;13.456;2023-05-20T12:06:57;19.60;53.80
70079;DHT22;57451;52.496;13.456;2023-05-20T12:09:25;19.70;52.80
70079;DHT22;57451;52.496;13.456;2023-05-20T12:11:53;19.80;53.10
70079;DHT22;57451;52.496;13.456;2023-05-20T12:14:22;19.80;52.80
70079;DHT22;57451;52.496;13.456;2023-05-20T12:16:50;19.90;52.40
70079;DHT22;57451;52.496;13.456;2023-05-20T12:19:19;20.00;52.50
70079;DHT22;57451;52.496;13.456;2023-05-20T12:21:47;20.10;52.00
70079;DHT22;57451;52.496;13.456;2023-05-20T12:24:15;20.10;51.30
70079;DHT22;57451;52.496;13.456;2023-05-20T12:26:44;20.00;51.90
70079;DHT22;57451;52.496;13.456;2023-05-20T12:29:11;20.10;51.70
70079;DHT22;57451;52.496;13.456;2023-05-20T12:31:39;20.20;52.10
70079;DHT22;57451;52.496;13.456;2023-05-20T12:34:07;20.30;51.40
70079;DHT22;57451;52.496;13.456;2023-05-20T12:36:34;20.40;52.40
70079;DHT22;57451;52.496;13.456;2023-05-20T12:39:02;20.50;51.20
70079;DHT22;57451;52.496;13.456;2023-05-20T12:41:29;20.60;51.40
70079;DHT22;57451;52.496;13.456;2023-05-20T12:43:58;20.80;51.20
70079;DHT22;57451;52.496;13.456;2023-05-20T12:46:26;20.80;50.60
70079;DHT22;57451;52.496;13.456;2023-05-20T12:48:53;20.70;50.20
70079;DHT22;57451;52.496;13.456;2023-05-20T12:51:21;20.80;50.30
70079;DHT22;57451;52.496;13.456;2023-05-20T12:53:48;20.80;50.20
70079;DHT22;57451;52.496;13.456;2023-05-20T12:56:16;21.00;50.50
70079;DHT22;57451;52.496;13.456;2023-05-20T12:58:44;21.00;50.60
70079;DHT22;57451;52.496;13.456;2023-05-20T13:01:13;21.10;50.30
70079;DHT22;57451;52.496;13.456;2023-05-20T13:03:41;21.10;50.10
70079;DHT22;57451;52.496;13.456;2023-05-20T13:06:09;21.20;50.10
70079;DHT22;57451;52.496;13.456;2023-05-20T13:08:37;21.10;49.90
70079;DHT22;57451;52.496;13.456;2023-05-20T13:11:04;21.20;50.40
70079;DHT22;57451;52.496;13.456;2023-05-20T13:13:32;21.20;49.40
70079;DHT22;57451;52.496;13.456;2023-05-20T13:15:59;21.10;49.70
70079;DHT22;57451;52.496;13.456;2023-05-20T13:18:28;21.10;49.90
70079;DHT22;57451;52.496;13.456;2023-05-20T13:20:55;21.00;49.80
70079;DHT22;57451;52.496;13.456;2023-05-20T13:23:23;21.00;50.00
70079;DHT22;57451;52.496;13.456;2023-05-20T13:25:52;21.10;50.50
70079;DHT22;57451;52.496;13.456;2023-05-20T13:28:19;21.20;49.90
70079;DHT22;57451;52.496;13.456;2023-05-20T13:30:47;21.20;49.40
70079;DHT22;57451;52.496;13.456;2023-05-20T13:33:15;21.30;49.50
70079;DHT22;57451;52.496;13.456;2023-05-20T13:35:44;21.30;48.90
70079;DHT22;57451;52.496;13.456;2023-05-20T13:38:11;21.20;49.30
70079;DHT22;57451;52.496;13.456;2023-05-20T13:40:39;21.30;50.20
70079;DHT22;57451;52.496;13.456;2023-05-20T13:43:08;21.40;49.50
70079;DHT22;57451;52.496;13.456;2023-05-20T13:45:35;21.50;49.30
70079;DHT22;57451;52.496;13.456;2023-05-20T13:48:03;21.50;49.50
70079;DHT22;57451;52.496;13.456;2023-05-20T13:50:31;21.60;49.70
70079;DHT22;57451;52.496;13.456;2023-05-20T13:53:00;21.70;49.50
70079;DHT22;57451;52.496;13.456;2023-05-20T13:55:27;21.70;49.20
70079;DHT22;57451;52.496;13.456;2023-05-20T13:57:55;21.80;49.30
70079;DHT22;57451;52.496;13.456;2023-05-20T14:00:22;21.80;49.20
70079;DHT22;57451;52.496;13.456;2023-05-20T14:02:50;21.80;49.40
70079;DHT22;57451;52.496;13.456;2023-05-20T14:05:17;21.90;49.30
70079;DHT22;57451;52.496;13.456;2023-05-20T14:07:45;22.00;49.50
70079;DHT22;57451;52.496;13.456;2023-05-20T14:10:14;22.00;49.20
70079;DHT22;57451;52.496;13.456;2023-05-20T14:12:41;22.10;48.90
70079;DHT22;57451;52.496;13.456;2023-05-20T14:15:14;22.20;48.50
70079;DHT22;57451;52.496;13.456;2023-05-20T14:17:41;22.30;48.00
70079;DHT22;57451;52.496;13.456;2023-05-20T14:20:10;22.30;48.80
70079;DHT22;57451;52.496;13.456;2023-05-20T14:22:37;22.30;48.50
70079;DHT22;57451;52.496;13.456;2023-05-20T14:25:06;22.40;47.70
70079;DHT22;57451;52.496;13.456;2023-05-20T14:27:34;22.40;48.40
70079;DHT22;57451;52.496;13.456;2023-05-20T14:30:03;22.50;48.20
70079;DHT22;57451;52.496;13.456;2023-05-20T14:32:30;22.50;47.70
70079;DHT22;57451;52.496;13.456;2023-05-20T14:34:58;22.60;48.20
70079;DHT22;57451;52.496;13.456;2023-05-20T14:37:26;22.70;47.40
70079;DHT22;57451;52.496;13.456;2023-05-20T14:39:54;22.60;47.30
70079;DHT22;57451;52.496;13.456;2023-05-20T14:42:22;22.50;47.90
70079;DHT22;57451;52.496;13.456;2023-05-20T14:44:51;22.50;48.10
70079;DHT22;57451;52.496;13.456;2023-05-20T14:47:18;22.50;48.10
70079;DHT22;57451;52.496;13.456;2023-05-20T14:49:48;22.50;47.90
70079;DHT22;57451;52.496;13.456;2023-05-20T14:52:16;22.50;48.10
70079;DHT22;57451;52.496;13.456;2023-05-20T14:54:44;22.50;48.10
70079;DHT22;57451;52.496;13.456;2023-05-20T14:57:11;22.50;47.90
70079;DHT22;57451;52.496;13.456;2023-05-20T14:59:39;22.40;47.90
70079;DHT22;57451;52.496;13.456;2023-05-20T15:02:08;22.40;48.10
70079;DHT22;57451;52.496;13.456;2023-05-20T15:04:37;22.40;48.50
70079;DHT22;57451;52.496;13.456;2023-05-20T15:07:04;22.50;48.00
70079;DHT22;57451;52.496;13.456;2023-05-20T15:09:32;22.50;48.40
70079;DHT22;57451;52.496;13.456;2023-05-20T15:12:01;22.50;48.30
70079;DHT22;57451;52.496;13.456;2023-05-20T15:14:28;22.40;48.50
70079;DHT22;57451;52.496;13.456;2023-05-20T15:16:56;22.50;48.50
70079;DHT22;57451;52.496;13.456;2023-05-20T15:19:25;22.50;47.90
70079;DHT22;57451;52.496;13.456;2023-05-20T15:21:53;22.50;48.00
70079;DHT22;57451;52.496;13.456;2023-05-20T15:24:22;22.50;47.30
70079;DHT22;57451;52.496;13.456;2023-05-20T15:26:51;22.60;47.50
70079;DHT22;57451;52.496;13.456;2023-05-20T15:29:19;22.50;47.80